createdAt,value
2022-12-04T00:01:24.095Z,4.00
2022-12-04T00:03:54.961Z,4.00
2022-12-04T00:06:25.177Z,4.00
2022-12-04T00:08:55.150Z,4.00
2022-12-04T00:11:26.616Z,3.90
2022-12-04T00:13:58.242Z,3.90
2022-12-04T00:16:31.725Z,3.90
2022-12-04T00:19:01.828Z,3.90
2022-12-04T00:21:31.969Z,3.90
2022-12-04T00:24:02.046Z,3.90
2022-12-04T00:26:32.466Z,3.90
2022-12-04T00:29:02.475Z,3.80
2022-12-04T00:31:32.315Z,3.90
2022-12-04T00:34:02.324Z,4.00
2022-12-04T00:36:32.441Z,3.90
2022-12-04T00:39:02.512Z,3.90
2022-12-04T00:41:32.881Z,3.90
2022-12-04T00:44:03.176Z,3.80
2022-12-04T00:46:33.393Z,3.80
2022-12-04T00:49:03.835Z,3.80
2022-12-04T00:51:33.406Z,3.80
2022-12-04T00:54:03.055Z,3.80
2022-12-04T00:56:32.505Z,3.70
2022-12-04T00:59:02.500Z,3.70
2022-12-04T01:01:32.071Z,3.90
2022-12-04T01:04:02.033Z,3.90
2022-12-04T01:06:33.312Z,3.90
2022-12-04T01:09:03.817Z,3.90
2022-12-04T01:11:33.450Z,3.90
2022-12-04T01:14:03.514Z,3.90
2022-12-04T01:16:37.401Z,3.90
2022-12-04T01:19:08.328Z,3.80
2022-12-04T01:21:38.539Z,3.80
2022-12-04T01:24:08.981Z,3.80
2022-12-04T01:26:38.604Z,3.80
2022-12-04T01:29:08.145Z,4.30
2022-12-04T01:31:37.654Z,4.50
2022-12-04T01:34:11.403Z,4.60
2022-12-04T01:36:41.476Z,4.60
2022-12-04T01:39:13.898Z,4.50
2022-12-04T01:41:43.751Z,4.50
2022-12-04T01:44:15.107Z,4.60
2022-12-04T01:46:49.421Z,4.70
2022-12-04T01:49:20.935Z,4.70
2022-12-04T01:51:56.292Z,4.80
2022-12-04T01:54:31.325Z,4.60
2022-12-04T01:57:08.184Z,4.70
2022-12-04T01:59:43.182Z,4.90
2022-12-04T02:02:14.633Z,4.90
2022-12-04T02:04:44.743Z,4.80
2022-12-04T02:07:15.320Z,4.70
2022-12-04T02:09:46.595Z,4.70
2022-12-04T02:12:55.098Z,4.80
2022-12-04T02:15:38.134Z,4.80
2022-12-04T02:18:34.287Z,4.70
2022-12-04T02:21:19.211Z,4.70
2022-12-04T02:23:54.957Z,4.80
2022-12-04T02:26:39.577Z,4.80
2022-12-04T02:29:26.863Z,4.80
2022-12-04T02:32:25.037Z,4.70
2022-12-04T02:35:22.949Z,4.80
2022-12-04T02:38:05.167Z,4.80
2022-12-04T02:40:49.708Z,4.80
2022-12-04T02:43:20.079Z,4.80
2022-12-04T02:46:01.077Z,4.90
2022-12-04T02:48:32.421Z,4.80
2022-12-04T02:51:02.493Z,4.90
2022-12-04T02:53:43.073Z,4.90
2022-12-04T02:56:28.096Z,4.90
2022-12-04T02:59:06.158Z,4.80
2022-12-04T03:01:38.126Z,4.90
2022-12-04T03:04:20.947Z,4.90
2022-12-04T03:06:59.829Z,4.80
2022-12-04T05:52:07.233Z,13.50
2022-12-04T05:54:37.430Z,13.00
2022-12-04T05:57:07.024Z,13.10
2022-12-04T05:59:36.740Z,13.30
2022-12-04T06:02:06.703Z,13.40
2022-12-04T06:04:39.204Z,13.80
2022-12-04T06:07:09.413Z,13.80
2022-12-04T06:09:39.461Z,13.90
2022-12-04T06:12:09.512Z,13.90
2022-12-04T06:14:40.014Z,13.90
2022-12-04T06:17:09.920Z,14.10
2022-12-04T06:19:39.524Z,14.20
2022-12-04T06:22:12.091Z,14.10
2022-12-04T06:24:42.544Z,14.10
2022-12-04T06:27:27.303Z,14.10
2022-12-04T06:29:58.205Z,14.20
2022-12-04T06:32:28.949Z,14.00
2022-12-04T06:34:58.824Z,14.10
2022-12-04T06:37:28.735Z,14.30
2022-12-04T06:39:59.008Z,14.30
2022-12-04T06:42:28.819Z,14.30
2022-12-04T06:44:58.733Z,14.30
2022-12-04T06:47:28.334Z,14.30
2022-12-04T06:49:58.682Z,14.30
2022-12-04T06:52:28.712Z,14.40
2022-12-04T06:54:58.661Z,14.50
2022-12-04T06:57:28.207Z,14.60
2022-12-04T06:59:58.316Z,14.60
2022-12-04T07:02:28.503Z,14.70
2022-12-04T07:04:58.569Z,14.80
2022-12-04T07:07:28.708Z,14.80
2022-12-04T07:09:58.499Z,14.90
2022-12-04T07:12:28.593Z,15.00
2022-12-04T07:14:58.572Z,15.00
2022-12-04T07:17:28.120Z,15.10
2022-12-04T07:19:57.845Z,15.10
2022-12-04T07:22:29.404Z,15.20
2022-12-04T07:24:59.399Z,15.30
2022-12-04T07:27:31.032Z,15.40
2022-12-04T07:30:00.802Z,15.40
2022-12-04T07:32:30.931Z,15.50
2022-12-04T07:35:00.509Z,15.60
2022-12-04T07:37:30.050Z,15.60
2022-12-04T07:39:59.534Z,15.80
2022-12-04T07:42:30.281Z,15.80
2022-12-04T07:45:00.355Z,15.90
2022-12-04T07:47:30.474Z,16.10
2022-12-04T07:50:00.505Z,16.10
2022-12-04T07:52:30.677Z,16.10
2022-12-04T07:55:00.666Z,16.10
2022-12-04T07:57:30.829Z,16.10
2022-12-04T08:00:00.970Z,16.20
2022-12-04T08:02:41.589Z,16.20
2022-12-04T08:05:11.707Z,16.20
2022-12-04T08:07:41.323Z,16.20
2022-12-04T08:10:11.539Z,16.10
2022-12-04T08:12:41.869Z,15.90
2022-12-04T08:15:12.393Z,15.70
2022-12-04T08:17:42.059Z,15.70
2022-12-04T08:20:12.298Z,15.70
2022-12-04T08:22:42.274Z,15.60
2022-12-04T08:25:11.988Z,15.70
2022-12-04T08:27:47.245Z,15.60
2022-12-04T08:30:17.796Z,15.50
2022-12-04T08:32:47.529Z,15.40
2022-12-04T08:35:17.049Z,15.30
2022-12-04T08:37:47.108Z,15.20
2022-12-04T08:40:19.151Z,15.20
2022-12-04T08:42:55.013Z,15.10
2022-12-04T08:45:27.351Z,15.00
2022-12-04T08:47:57.122Z,14.90
2022-12-04T08:50:27.179Z,14.80
2022-12-04T08:53:00.546Z,14.70
2022-12-04T08:55:33.875Z,14.60
2022-12-04T08:58:06.072Z,14.50
2022-12-04T09:00:36.296Z,14.30
2022-12-04T09:03:16.838Z,14.20
2022-12-04T09:05:49.607Z,14.10
2022-12-04T09:08:22.281Z,14.00
2022-12-04T09:10:52.249Z,14.00
2022-12-04T09:13:25.079Z,13.90
2022-12-04T09:15:55.285Z,13.90
2022-12-04T09:18:25.358Z,13.90
2022-12-04T09:21:01.765Z,13.80
2022-12-04T09:23:31.847Z,13.70
2022-12-04T09:26:01.568Z,13.70
2022-12-04T09:28:32.131Z,13.50
2022-12-04T09:31:05.999Z,13.50
2022-12-04T09:33:36.022Z,13.50
2022-12-04T09:36:05.765Z,13.30
2022-12-04T09:38:35.687Z,13.20
2022-12-04T09:41:20.844Z,13.10
2022-12-04T09:44:20.673Z,13.10
2022-12-04T09:46:54.312Z,13.10
2022-12-04T09:49:27.580Z,13.00
2022-12-04T09:51:58.119Z,13.00
2022-12-04T09:54:39.715Z,12.90
2022-12-04T09:58:01.748Z,12.80
2022-12-04T10:00:32.371Z,12.80
2022-12-04T10:03:06.788Z,12.70
2022-12-04T10:06:06.869Z,12.70
2022-12-04T10:08:46.917Z,12.60
2022-12-04T10:11:16.609Z,12.60
2022-12-04T10:14:06.756Z,12.40
2022-12-04T10:17:14.900Z,12.40
2022-12-04T10:19:55.980Z,12.30
2022-12-04T10:22:44.196Z,12.30
2022-12-04T10:25:17.019Z,12.10
2022-12-04T10:28:16.005Z,12.10
2022-12-04T10:30:46.107Z,11.90
2022-12-04T10:33:34.542Z,11.90
2022-12-04T10:36:04.583Z,11.80
2022-12-04T10:38:52.703Z,11.90
2022-12-04T10:41:42.884Z,11.80
2022-12-04T10:44:16.481Z,11.80
2022-12-04T10:46:46.765Z,11.80
2022-12-04T10:49:30.283Z,11.80
2022-12-04T10:52:00.266Z,11.70
2022-12-04T10:55:02.224Z,11.70
2022-12-04T10:57:39.886Z,11.70
2022-12-04T11:00:28.133Z,11.60
2022-12-04T11:03:00.548Z,11.50
2022-12-04T11:05:56.063Z,11.50
2022-12-04T11:08:29.496Z,11.50
2022-12-04T11:11:06.478Z,11.50
2022-12-04T11:13:36.478Z,11.50
2022-12-04T11:16:07.248Z,11.40
2022-12-04T11:18:58.064Z,11.50
2022-12-04T11:21:31.602Z,11.50
2022-12-04T11:24:01.142Z,11.30
2022-12-04T11:26:38.755Z,11.00
2022-12-04T11:29:08.392Z,10.80
2022-12-04T11:31:39.089Z,10.70
2022-12-04T11:34:15.718Z,10.70
2022-12-04T11:36:45.352Z,10.60
2022-12-04T11:39:16.779Z,10.60
2022-12-04T11:41:46.389Z,10.60
2022-12-04T11:44:31.923Z,10.50
2022-12-04T11:47:03.213Z,10.40
2022-12-04T11:49:33.796Z,10.40
2022-12-04T11:52:15.616Z,10.40
2022-12-04T11:54:56.528Z,10.40
2022-12-04T11:57:41.962Z,10.30
2022-12-04T12:00:24.965Z,10.30
2022-12-04T12:03:21.723Z,10.30
2022-12-04T12:06:22.133Z,10.20
2022-12-04T12:09:24.718Z,10.20
2022-12-04T12:11:58.081Z,10.30
2022-12-04T12:14:53.300Z,10.20
2022-12-04T12:17:38.391Z,10.10
2022-12-04T12:20:16.972Z,10.10
2022-12-04T12:22:46.883Z,10.10
2022-12-04T12:25:52.066Z,10.10
2022-12-04T12:28:28.828Z,10.00
2022-12-04T12:31:09.948Z,10.00
2022-12-04T12:33:53.084Z,10.10
2022-12-04T12:36:22.963Z,10.10
2022-12-04T12:38:55.745Z,10.10
2022-12-04T12:41:57.926Z,10.10
2022-12-04T12:44:35.432Z,10.10
2022-12-04T12:47:20.883Z,10.10
2022-12-04T12:50:25.483Z,10.00
2022-12-04T12:53:01.040Z,9.90
2022-12-04T12:55:37.330Z,9.90
2022-12-04T12:58:53.369Z,9.90
2022-12-04T13:01:28.357Z,9.90
2022-12-04T13:04:36.266Z,9.90
2022-12-04T13:07:21.883Z,9.80
2022-12-04T13:10:28.522Z,9.80
2022-12-04T13:13:09.370Z,9.90
2022-12-04T13:15:46.582Z,9.90
2022-12-04T13:18:38.478Z,9.70
2022-12-04T13:21:35.790Z,9.90
2022-12-04T13:24:30.559Z,9.80
2022-12-04T13:27:15.756Z,9.80
2022-12-04T13:30:06.541Z,9.80
2022-12-04T13:32:50.146Z,9.80
2022-12-04T13:35:29.436Z,9.70
2022-12-04T13:38:14.397Z,9.60
2022-12-04T13:41:00.607Z,9.60
2022-12-04T13:43:32.716Z,9.70
2022-12-04T13:46:04.280Z,9.70
2022-12-04T13:48:41.939Z,9.80
2022-12-04T13:51:37.960Z,9.70
2022-12-04T13:54:13.606Z,9.60
2022-12-04T13:56:53.427Z,9.60
2022-12-04T13:59:32.107Z,9.60
2022-12-04T14:02:36.410Z,9.50
2022-12-04T14:05:11.911Z,9.60
2022-12-04T14:07:46.603Z,9.50
2022-12-04T14:10:16.080Z,9.50
2022-12-04T14:12:58.566Z,9.50
2022-12-04T14:15:30.106Z,9.50
2022-12-04T14:18:22.613Z,9.60
2022-12-04T14:21:01.241Z,9.60
2022-12-04T14:23:36.809Z,9.50
2022-12-04T14:26:09.382Z,9.40
2022-12-04T14:28:42.948Z,9.50
2022-12-04T14:31:50.914Z,9.40
2022-12-04T14:34:25.696Z,9.40
2022-12-04T14:36:56.445Z,9.50
2022-12-04T14:39:31.476Z,9.40
2022-12-04T14:42:28.190Z,9.30
2022-12-04T14:44:58.314Z,9.40
2022-12-04T14:47:28.554Z,9.40
2022-12-04T14:50:16.215Z,9.30
2022-12-04T14:52:57.215Z,9.30
2022-12-04T14:55:37.508Z,9.30
2022-12-04T14:58:32.219Z,9.30
2022-12-04T15:01:04.135Z,9.30
2022-12-04T15:03:37.376Z,9.30
2022-12-04T15:06:08.061Z,9.40
2022-12-04T15:08:37.979Z,9.30
2022-12-04T15:11:26.745Z,9.30
2022-12-04T15:13:57.259Z,9.20
2022-12-04T15:16:27.161Z,9.30
2022-12-04T15:19:01.317Z,9.30
2022-12-04T15:21:41.636Z,9.30
2022-12-04T15:24:21.025Z,9.30
2022-12-04T15:26:51.245Z,9.30
2022-12-04T15:29:31.857Z,9.20
2022-12-04T15:32:06.883Z,9.30
2022-12-04T15:35:06.856Z,9.20
2022-12-04T15:37:37.009Z,9.20
2022-12-04T15:40:13.052Z,9.20
2022-12-04T15:42:42.741Z,9.20
2022-12-04T15:45:13.376Z,9.10
2022-12-04T15:47:43.281Z,9.10
2022-12-04T15:50:33.237Z,9.10
2022-12-04T15:53:09.629Z,9.10
2022-12-04T15:55:48.677Z,9.10
2022-12-04T15:58:28.446Z,9.10
2022-12-04T16:01:06.862Z,9.10
2022-12-04T16:03:43.331Z,9.10
2022-12-04T16:06:26.995Z,9.20
2022-12-04T16:08:56.928Z,9.20
2022-12-04T16:11:32.339Z,9.20
2022-12-04T16:14:16.763Z,9.10
2022-12-04T16:16:51.878Z,9.10
2022-12-04T16:19:33.843Z,9.10
2022-12-04T16:22:05.086Z,9.20
2022-12-04T16:24:35.199Z,9.20
2022-12-04T16:27:07.336Z,9.10
2022-12-04T16:29:37.317Z,9.20
2022-12-04T16:32:07.158Z,9.10
2022-12-04T16:34:37.197Z,9.20
2022-12-04T16:37:18.319Z,9.10
2022-12-04T16:39:48.012Z,9.00
2022-12-04T16:42:23.056Z,9.20
2022-12-04T16:44:52.788Z,9.10
2022-12-04T16:47:22.384Z,9.10
2022-12-04T16:49:53.255Z,9.00
2022-12-04T16:52:23.346Z,8.90
2022-12-04T16:54:53.462Z,8.80
2022-12-04T16:57:23.488Z,8.90
2022-12-04T16:59:53.051Z,8.80
2022-12-04T17:02:25.241Z,8.70
2022-12-04T17:04:57.788Z,8.80
2022-12-04T17:07:28.363Z,9.00
2022-12-04T17:09:57.974Z,8.90
2022-12-04T17:12:27.965Z,8.80
2022-12-04T17:14:58.342Z,8.80
2022-12-04T17:17:28.412Z,8.80
2022-12-04T17:19:57.890Z,8.80
2022-12-04T17:22:27.908Z,8.80
2022-12-04T17:24:59.051Z,8.70
2022-12-04T17:27:29.492Z,8.70
2022-12-04T17:30:03.628Z,8.70
2022-12-04T17:32:33.846Z,8.70
2022-12-04T17:35:03.869Z,8.60
2022-12-04T17:37:36.857Z,8.80
2022-12-04T17:40:11.894Z,8.80
2022-12-04T17:42:42.431Z,8.90
2022-12-04T17:45:13.278Z,8.80
2022-12-04T17:47:43.499Z,8.70
2022-12-04T17:50:13.556Z,8.80
2022-12-04T17:52:43.103Z,8.70
2022-12-04T17:55:13.180Z,8.70
2022-12-04T17:57:43.212Z,8.70
2022-12-04T18:00:13.795Z,8.70
2022-12-04T18:02:46.380Z,8.70
2022-12-04T18:05:19.799Z,8.80
2022-12-04T18:07:49.889Z,8.60
2022-12-04T18:10:19.923Z,8.60
2022-12-04T18:12:49.810Z,8.50
2022-12-04T18:15:19.431Z,8.60
2022-12-04T18:17:48.907Z,8.50
2022-12-04T18:20:22.053Z,8.40
2022-12-04T18:22:52.050Z,8.50
2022-12-04T18:25:22.224Z,8.30
2022-12-04T18:28:00.369Z,8.40
2022-12-04T18:30:29.845Z,8.40
2022-12-04T18:33:00.290Z,8.40
2022-12-04T18:35:30.346Z,8.40
2022-12-04T18:37:59.860Z,8.40
2022-12-04T18:40:29.839Z,8.30
2022-12-04T18:42:59.891Z,8.30
2022-12-04T18:45:31.718Z,8.40
2022-12-04T18:48:01.627Z,8.50
2022-12-04T18:50:31.231Z,8.30
2022-12-04T18:53:01.502Z,8.30
2022-12-04T18:55:31.419Z,8.40
2022-12-04T18:58:00.967Z,8.50
2022-12-04T19:00:30.582Z,8.50
2022-12-04T19:03:00.508Z,8.60
2022-12-04T19:05:30.572Z,8.50
2022-12-04T19:08:00.381Z,8.40
2022-12-04T19:10:30.088Z,8.50
2022-12-04T19:12:59.998Z,8.60
2022-12-04T19:15:29.477Z,8.40
2022-12-04T19:17:59.339Z,8.50
2022-12-04T19:20:30.885Z,8.50
2022-12-04T19:23:01.403Z,8.50
2022-12-04T19:25:30.884Z,8.50
2022-12-04T19:28:02.960Z,8.50
2022-12-04T19:30:34.455Z,8.40
2022-12-04T19:33:04.454Z,8.40
2022-12-04T19:35:34.003Z,8.40
2022-12-04T19:38:03.995Z,8.40
2022-12-04T19:40:34.168Z,8.50
2022-12-04T19:43:04.185Z,8.50
2022-12-04T19:45:34.352Z,8.40
2022-12-04T19:48:04.002Z,8.40
2022-12-04T19:50:34.022Z,8.30
2022-12-04T19:53:04.220Z,8.30
2022-12-04T19:55:33.741Z,8.20
2022-12-04T19:58:09.944Z,8.20
2022-12-04T20:00:40.821Z,8.20
2022-12-04T20:03:10.967Z,8.30
2022-12-04T20:05:40.591Z,8.30
2022-12-04T20:10:38.108Z,8.10
2022-12-04T20:13:07.586Z,8.20
2022-12-04T20:15:38.059Z,8.10
2022-12-04T20:18:07.515Z,8.20
2022-12-04T20:20:37.521Z,8.10
2022-12-04T20:23:07.176Z,8.10
2022-12-04T20:25:37.518Z,8.00
2022-12-04T20:28:14.367Z,8.10
2022-12-04T20:30:44.709Z,8.10
2022-12-04T20:33:14.349Z,8.00
2022-12-04T20:35:44.247Z,8.10
2022-12-04T20:38:16.847Z,8.10
2022-12-04T20:40:50.191Z,8.10
2022-12-04T20:43:19.707Z,8.10
2022-12-04T20:45:49.698Z,8.10
2022-12-04T20:48:19.265Z,8.00
2022-12-04T20:50:49.312Z,8.00
2022-12-04T20:53:19.296Z,7.90
2022-12-04T20:55:55.978Z,7.90
2022-12-04T20:58:25.547Z,7.90
2022-12-04T21:00:55.490Z,7.90
2022-12-04T21:03:25.548Z,7.90
2022-12-04T21:05:55.184Z,8.00
2022-12-04T21:08:44.452Z,7.90
2022-12-04T21:11:14.087Z,7.80
2022-12-04T21:14:01.511Z,7.90
2022-12-04T21:16:31.873Z,7.80
2022-12-04T21:19:02.010Z,7.70
2022-12-04T21:21:31.740Z,7.70
2022-12-04T21:24:01.790Z,7.80
2022-12-04T21:26:32.566Z,7.90
2022-12-04T21:29:02.894Z,7.80
2022-12-04T21:31:32.922Z,7.80
2022-12-04T21:34:03.657Z,7.80
2022-12-04T21:36:33.199Z,7.80
2022-12-04T21:39:02.759Z,7.70
2022-12-04T21:41:50.749Z,7.70
2022-12-04T21:44:21.324Z,7.70
2022-12-04T21:46:51.292Z,7.70
2022-12-04T21:49:21.113Z,7.70
2022-12-04T21:51:58.883Z,7.70
2022-12-04T21:54:29.124Z,7.70
2022-12-04T21:56:58.773Z,7.60
2022-12-04T21:59:28.243Z,7.50
2022-12-04T22:01:58.292Z,7.60
2022-12-04T22:04:27.888Z,7.60
2022-12-04T22:06:57.778Z,7.60
2022-12-04T22:09:27.403Z,7.50
2022-12-04T22:11:56.956Z,7.40
2022-12-04T22:14:26.620Z,7.50
2022-12-04T22:16:56.634Z,7.50
2022-12-04T22:19:26.245Z,7.50
2022-12-04T22:21:56.234Z,7.60
2022-12-04T22:24:25.830Z,7.50
2022-12-04T22:26:55.266Z,7.50
2022-12-04T22:29:49.025Z,7.50
2022-12-04T22:32:14.871Z,7.50
2022-12-04T22:34:44.773Z,7.50
2022-12-04T22:37:14.382Z,7.50
2022-12-04T22:39:43.898Z,7.40
2022-12-04T22:42:13.391Z,7.40
2022-12-04T22:44:43.327Z,7.40
2022-12-04T22:47:12.911Z,7.30
2022-12-04T22:49:42.830Z,7.30
2022-12-04T22:52:12.871Z,7.30
2022-12-04T22:54:42.495Z,7.20
2022-12-04T22:57:12.175Z,7.30
2022-12-04T22:59:41.637Z,7.40
2022-12-04T23:02:11.544Z,7.30
2022-12-04T23:04:41.641Z,7.30
2022-12-04T23:07:11.691Z,7.30
2022-12-04T23:09:41.422Z,7.20
2022-12-04T23:12:11.014Z,7.20
2022-12-04T23:14:40.523Z,7.20
2022-12-04T23:17:10.200Z,7.10
2022-12-04T23:19:40.244Z,7.30
2022-12-04T23:22:09.966Z,7.20
2022-12-04T23:24:39.637Z,7.10
2022-12-04T23:27:09.176Z,7.10
2022-12-04T23:29:53.168Z,7.10
2022-12-04T23:32:24.209Z,7.10
2022-12-04T23:34:54.335Z,7.10
2022-12-04T23:37:23.896Z,7.10
2022-12-04T23:39:53.992Z,7.10
2022-12-04T23:42:23.970Z,7.10
2022-12-04T23:44:53.622Z,7.00
2022-12-04T23:47:23.081Z,7.00
2022-12-04T23:49:53.105Z,7.10
2022-12-04T23:52:23.087Z,6.90
2022-12-04T23:54:53.049Z,7.00
2022-12-04T23:57:23.910Z,6.90
2022-12-04T23:59:54.706Z,7.00
